Time;durP1;ratioP1;P1;durP2;ratioP2;P2;SDS_P1;SDS_P2;PMS_P1;PMS_P2;Temp;Humidity;BMP_temperature;BMP_pressure;BME280_temperature;BME280_humidity;BME280_pressure;Samples;Min_cycle;Max_cycle;Signal;HPM_P1;HPM_P2
2022/01/04 00:02:23;;;;;;;;;;;15.50;58.00;;;;;;4996354;28;19910;-88
2022/01/04 00:04:49;;;;;;;;;;;15.50;58.20;;;;;;4996844;28;19933;-88
2022/01/04 00:07:14;;;;;;;;;;;15.60;58.20;;;;;;4981020;28;20405;-88
2022/01/04 00:09:42;;;;;;;;;;;15.50;58.20;;;;;;4997181;28;19944;-87
2022/01/04 00:14:53;;;;;;;;;;;15.50;58.40;;;;;;4996982;28;19924;-87
2022/01/04 00:17:18;;;;;;;;;;;15.50;58.40;;;;;;4981658;28;19945;-87
2022/01/04 00:19:44;;;;;;;;;;;15.50;58.60;;;;;;4996843;28;19918;-88
2022/01/04 00:22:09;;;;;;;;;;;15.50;58.60;;;;;;4996636;28;19949;-88
2022/01/04 00:24:35;;;;;;;;;;;15.50;58.60;;;;;;4995522;28;19922;-88
2022/01/04 00:27:01;;;;;;;;;;;15.50;58.50;;;;;;4997165;28;19917;-88
2022/01/04 00:29:26;;;;;;;;;;;15.50;58.50;;;;;;4995882;28;19918;-88
2022/01/04 00:31:52;;;;;;;;;;;15.50;58.30;;;;;;4994906;28;19917;-88
2022/01/04 00:34:17;;;;;;;;;;;15.50;58.60;;;;;;4996883;28;19918;-87
2022/01/04 00:36:42;;;;;;;;;;;15.50;58.50;;;;;;4995215;28;20520;-88
2022/01/04 00:39:08;;;;;;;;;;;15.50;58.40;;;;;;4996273;28;19924;-88
2022/01/04 00:41:34;;;;;;;;;;;15.50;58.50;;;;;;4995703;28;20000;-88
2022/01/04 00:43:59;;;;;;;;;;;15.50;58.70;;;;;;4997091;28;19922;-88
2022/01/04 00:46:25;;;;;;;;;;;15.50;58.50;;;;;;4996329;28;19909;-88
2022/01/04 00:49:09;;;;;;;;;;;15.40;58.50;;;;;;4994717;28;19917;-88
2022/01/04 00:51:35;;;;;;;;;;;15.40;58.30;;;;;;4979478;28;19914;-88
2022/01/04 00:54:01;;;;;;;;;;;15.40;58.70;;;;;;4995406;28;19924;-88
2022/01/04 00:56:26;;;;;;;;;;;15.40;58.70;;;;;;4995214;28;19957;-88
2022/01/04 00:58:52;;;;;;;;;;;15.40;58.50;;;;;;4995593;28;19914;-89
2022/01/04 01:01:17;;;;;;;;;;;15.50;58.70;;;;;;4995786;28;20005;-88
2022/01/04 01:03:43;;;;;;;;;;;15.50;58.80;;;;;;4997191;28;19914;-89
2022/01/04 01:06:09;;;;;;;;;;;15.50;58.70;;;;;;4995000;28;19910;-88
2022/01/04 01:08:36;;;;;;;;;;;15.50;58.90;;;;;;4979388;28;19910;-88
2022/01/04 01:11:02;;;;;;;;;;;15.60;58.80;;;;;;4995075;28;20028;-88
2022/01/04 01:13:27;;;;;;;;;;;15.50;58.70;;;;;;4994871;28;19941;-88
2022/01/04 01:15:53;;;;;;;;;;;15.60;58.90;;;;;;4995245;28;19925;-88
2022/01/04 01:18:18;;;;;;;;;;;15.60;58.60;;;;;;4996912;28;20386;-87
2022/01/04 01:20:45;;;;;;;;;;;15.60;58.80;;;;;;4996389;28;19961;-89
2022/01/04 01:23:11;;;;;;;;;;;15.60;58.90;;;;;;4995213;28;20780;-88
2022/01/04 01:25:36;;;;;;;;;;;15.60;58.60;;;;;;4980473;28;19906;-88
2022/01/04 01:28:05;;;;;;;;;;;15.60;58.60;;;;;;4998726;28;19909;-88
2022/01/04 01:30:33;;;;;;;;;;;15.60;58.30;;;;;;4998455;28;20016;-88
2022/01/04 01:32:59;;;;;;;;;;;15.60;58.30;;;;;;4981615;28;19921;-88
2022/01/04 01:35:25;;;;;;;;;;;15.50;58.50;;;;;;5000574;28;19917;-88
2022/01/04 01:37:50;;;;;;;;;;;15.50;58.50;;;;;;4982977;28;19910;-87
2022/01/04 01:40:16;;;;;;;;;;;15.50;58.20;;;;;;4999127;28;19929;-87
2022/01/04 01:42:41;;;;;;;;;;;15.50;58.30;;;;;;4999184;28;19956;-88
2022/01/04 01:45:07;;;;;;;;;;;15.50;58.30;;;;;;4966633;28;20346;-88
2022/01/04 01:47:33;;;;;;;;;;;15.50;58.10;;;;;;4999685;28;19980;-88
2022/01/04 01:49:58;;;;;;;;;;;15.50;58.20;;;;;;4999544;28;19985;-88
2022/01/04 01:52:24;;;;;;;;;;;15.50;58.20;;;;;;4999146;28;19921;-88
2022/01/04 01:54:49;;;;;;;;;;;15.40;58.10;;;;;;4998117;28;19964;-88
2022/01/04 01:57:15;;;;;;;;;;;15.40;58.20;;;;;;4981890;28;19937;-89
2022/01/04 01:59:40;;;;;;;;;;;15.40;58.00;;;;;;4999970;28;19914;-88
2022/01/04 02:02:06;;;;;;;;;;;15.40;58.10;;;;;;4980822;28;19914;-87
2022/01/04 02:04:31;;;;;;;;;;;15.40;58.20;;;;;;4997628;28;19921;-88
2022/01/04 02:06:57;;;;;;;;;;;15.40;58.20;;;;;;4998096;28;19960;-88
2022/01/04 02:09:24;;;;;;;;;;;15.40;58.20;;;;;;4999043;28;19921;-88
2022/01/04 02:11:50;;;;;;;;;;;15.40;58.20;;;;;;4980746;28;19929;-88
2022/01/04 02:14:16;;;;;;;;;;;15.40;58.00;;;;;;4997606;28;20373;-88
2022/01/04 02:16:42;;;;;;;;;;;15.40;57.90;;;;;;4981292;28;20009;-88
2022/01/04 02:19:08;;;;;;;;;;;15.40;58.10;;;;;;4983485;28;19922;-88
2022/01/04 02:21:34;;;;;;;;;;;15.40;58.10;;;;;;4980905;28;19917;-88
2022/01/04 02:23:59;;;;;;;;;;;15.40;58.10;;;;;;4996567;28;19930;-88
2022/01/04 02:26:25;;;;;;;;;;;15.50;58.00;;;;;;4980796;28;19917;-88
2022/01/04 02:28:51;;;;;;;;;;;15.50;57.50;;;;;;4996868;28;19979;-88
2022/01/04 02:31:17;;;;;;;;;;;15.50;57.60;;;;;;4997575;28;19909;-87
2022/01/04 02:33:42;;;;;;;;;;;15.40;57.40;;;;;;4997611;28;19909;-88
2022/01/04 02:36:08;;;;;;;;;;;15.40;57.60;;;;;;4995594;28;20378;-88
2022/01/04 02:38:33;;;;;;;;;;;15.40;57.40;;;;;;4997229;28;19910;-88
2022/01/04 02:41:02;;;;;;;;;;;15.40;57.50;;;;;;4997306;28;19921;-88
2022/01/04 02:43:28;;;;;;;;;;;15.40;57.50;;;;;;4996232;28;19957;-88
2022/01/04 02:45:53;;;;;;;;;;;15.40;57.40;;;;;;4996812;28;20251;-86
2022/01/04 02:48:19;;;;;;;;;;;15.40;57.70;;;;;;4997663;28;19964;-88
2022/01/04 02:50:44;;;;;;;;;;;15.40;57.70;;;;;;4997410;28;19925;-88
2022/01/04 02:53:10;;;;;;;;;;;15.40;57.50;;;;;;4996961;28;19965;-87
2022/01/04 02:55:35;;;;;;;;;;;15.40;57.50;;;;;;4996732;28;19925;-89
2022/01/04 02:58:01;;;;;;;;;;;15.40;57.70;;;;;;4996926;28;19910;-88
2022/01/04 03:00:28;;;;;;;;;;;15.40;57.50;;;;;;4996611;28;20036;-88
2022/01/04 03:02:54;;;;;;;;;;;15.40;57.10;;;;;;4998102;28;20313;-89
2022/01/04 03:05:19;;;;;;;;;;;15.40;57.20;;;;;;4996385;28;19926;-88
2022/01/04 03:07:45;;;;;;;;;;;15.40;57.40;;;;;;4995932;28;19910;-89
2022/01/04 03:10:10;;;;;;;;;;;15.40;57.20;;;;;;4997996;28;20378;-88
2022/01/04 03:12:39;;;;;;;;;;;15.40;57.10;;;;;;4997764;28;19921;-88
2022/01/04 03:15:05;;;;;;;;;;;15.40;57.20;;;;;;4979922;28;19972;-88
2022/01/04 03:17:30;;;;;;;;;;;15.30;57.00;;;;;;4996633;28;19973;-88
2022/01/04 03:19:56;;;;;;;;;;;15.30;57.00;;;;;;4997099;28;20399;-88
2022/01/04 03:22:21;;;;;;;;;;;15.30;57.40;;;;;;4997027;28;19916;-88
2022/01/04 03:24:47;;;;;;;;;;;15.10;57.70;;;;;;4995808;28;20016;-88
2022/01/04 03:27:13;;;;;;;;;;;15.00;58.20;;;;;;4980365;28;19917;-88
2022/01/04 03:29:38;;;;;;;;;;;14.90;58.30;;;;;;4979048;28;20526;-88
2022/01/04 03:32:04;;;;;;;;;;;14.80;58.70;;;;;;4995550;28;19972;-88
2022/01/04 03:34:29;;;;;;;;;;;14.70;59.10;;;;;;4995307;28;19961;-88
2022/01/04 03:36:55;;;;;;;;;;;14.60;59.20;;;;;;4995965;28;19949;-88
2022/01/04 03:39:20;;;;;;;;;;;14.60;59.50;;;;;;4996633;28;19986;-88
2022/01/04 03:41:46;;;;;;;;;;;14.50;59.70;;;;;;4995514;28;20366;-88
2022/01/04 03:44:19;;;;;;;;;;;14.50;59.80;;;;;;4995334;28;20404;-88
2022/01/04 03:46:46;;;;;;;;;;;14.50;60.00;;;;;;4995506;28;19916;-88
2022/01/04 03:49:11;;;;;;;;;;;14.50;60.10;;;;;;4996727;28;19922;-88
2022/01/04 03:51:37;;;;;;;;;;;14.40;60.20;;;;;;4995278;28;20392;-87
2022/01/04 03:54:02;;;;;;;;;;;14.40;60.40;;;;;;4996464;28;19925;-88
2022/01/04 03:56:28;;;;;;;;;;;14.30;60.40;;;;;;4996162;28;19909;-88
2022/01/04 03:58:55;;;;;;;;;;;14.30;60.40;;;;;;4996401;28;19937;-88
2022/01/04 04:01:20;;;;;;;;;;;14.30;60.50;;;;;;4996528;28;19914;-88
2022/01/04 04:03:46;;;;;;;;;;;14.30;60.60;;;;;;4994839;28;20235;-88
2022/01/04 04:06:12;;;;;;;;;;;14.30;60.60;;;;;;4994905;28;19914;-88
2022/01/04 04:08:37;;;;;;;;;;;14.30;60.70;;;;;;4994864;28;19942;-88
2022/01/04 04:11:03;;;;;;;;;;;14.20;60.70;;;;;;4995987;28;19928;-88
2022/01/04 04:13:28;;;;;;;;;;;14.20;60.90;;;;;;4995405;28;19975;-88
2022/01/04 04:15:54;;;;;;;;;;;14.20;60.70;;;;;;4994655;28;19925;-88
2022/01/04 04:18:19;;;;;;;;;;;14.20;60.80;;;;;;4995088;28;19957;-88
2022/01/04 04:20:45;;;;;;;;;;;14.20;60.80;;;;;;4996502;28;19918;-88
2022/01/04 04:23:11;;;;;;;;;;;14.20;60.70;;;;;;4995972;28;19918;-88
2022/01/04 04:25:37;;;;;;;;;;;14.10;60.60;;;;;;4977532;28;20333;-88
2022/01/04 04:28:03;;;;;;;;;;;14.20;60.80;;;;;;4995211;28;19969;-88
2022/01/04 04:30:28;;;;;;;;;;;14.20;60.90;;;;;;4977697;28;19914;-88
2022/01/04 04:32:54;;;;;;;;;;;14.30;60.80;;;;;;4977648;28;19988;-88
2022/01/04 04:35:19;;;;;;;;;;;14.20;60.60;;;;;;4994186;28;19928;-88
2022/01/04 04:37:45;;;;;;;;;;;14.20;60.70;;;;;;4995363;28;19910;-89
2022/01/04 04:40:11;;;;;;;;;;;14.30;60.80;;;;;;4993614;28;19964;-87
2022/01/04 04:42:36;;;;;;;;;;;14.30;60.60;;;;;;4992579;28;20282;-86
2022/01/04 04:45:03;;;;;;;;;;;14.30;60.60;;;;;;4994666;28;19921;-87
2022/01/04 04:47:28;;;;;;;;;;;14.30;60.70;;;;;;4994482;28;20301;-87
2022/01/04 04:49:54;;;;;;;;;;;14.30;60.60;;;;;;4993451;28;19925;-88
2022/01/04 04:52:19;;;;;;;;;;;14.30;60.60;;;;;;4994038;28;20381;-88
2022/01/04 04:54:45;;;;;;;;;;;14.40;60.30;;;;;;4993891;28;19926;-88
2022/01/04 04:57:10;;;;;;;;;;;14.30;60.30;;;;;;4995098;28;19920;-88
2022/01/04 04:59:36;;;;;;;;;;;14.40;60.50;;;;;;4995230;28;19918;-88
2022/01/04 05:02:02;;;;;;;;;;;14.40;60.30;;;;;;4997927;28;19910;-89
2022/01/04 05:04:27;;;;;;;;;;;14.40;60.20;;;;;;4999230;28;19922;-88
2022/01/04 05:06:53;;;;;;;;;;;14.40;60.10;;;;;;4998859;28;19949;-88
2022/01/04 05:09:19;;;;;;;;;;;14.40;60.10;;;;;;4997752;28;20017;-88
2022/01/04 05:11:44;;;;;;;;;;;14.40;59.90;;;;;;4997460;28;20272;-88
2022/01/04 05:14:10;;;;;;;;;;;14.30;59.80;;;;;;4980587;28;19917;-87
2022/01/04 05:16:35;;;;;;;;;;;14.30;59.90;;;;;;4997400;28;19921;-87
2022/01/04 05:19:01;;;;;;;;;;;14.30;59.90;;;;;;4997582;28;20408;-88
2022/01/04 05:21:26;;;;;;;;;;;14.40;59.90;;;;;;4996932;28;20365;-86
2022/01/04 05:23:54;;;;;;;;;;;14.40;60.10;;;;;;4997895;28;19910;-88
2022/01/04 05:26:20;;;;;;;;;;;14.30;59.70;;;;;;4999134;28;19914;-88
2022/01/04 05:28:46;;;;;;;;;;;14.40;59.70;;;;;;4997465;28;19914;-88
2022/01/04 05:31:12;;;;;;;;;;;14.40;59.70;;;;;;4998662;28;19925;-87
2022/01/04 05:33:37;;;;;;;;;;;14.40;59.60;;;;;;4998632;28;20261;-88
2022/01/04 05:36:03;;;;;;;;;;;14.40;59.70;;;;;;4998702;28;19968;-87
2022/01/04 05:38:29;;;;;;;;;;;14.50;59.70;;;;;;4998630;28;20398;-88
2022/01/04 05:40:54;;;;;;;;;;;14.50;59.70;;;;;;4999279;28;19913;-88
2022/01/04 05:43:20;;;;;;;;;;;14.40;59.40;;;;;;4996909;28;20061;-88
2022/01/04 05:45:45;;;;;;;;;;;14.40;59.40;;;;;;4998327;28;20080;-88
2022/01/04 05:48:11;;;;;;;;;;;14.40;59.60;;;;;;4998618;28;19925;-86
2022/01/04 05:50:38;;;;;;;;;;;14.40;59.70;;;;;;4999246;28;19913;-88
2022/01/04 05:53:04;;;;;;;;;;;14.40;59.70;;;;;;4997832;28;20001;-88
2022/01/04 05:55:29;;;;;;;;;;;14.50;59.70;;;;;;4998572;28;20019;-88
2022/01/04 05:57:54;;;;;;;;;;;14.50;59.70;;;;;;4998237;28;19917;-87
2022/01/04 06:00:20;;;;;;;;;;;14.50;59.70;;;;;;4996781;28;20281;-87
2022/01/04 06:02:45;;;;;;;;;;;14.50;59.60;;;;;;4996502;28;19917;-87
2022/01/04 06:05:14;;;;;;;;;;;14.50;59.50;;;;;;4997736;28;19960;-87
2022/01/04 06:07:39;;;;;;;;;;;14.50;59.40;;;;;;4996715;28;20399;-87
2022/01/04 06:10:07;;;;;;;;;;;14.50;59.40;;;;;;4996751;28;19921;-87
2022/01/04 06:14:59;;;;;;;;;;;14.50;59.20;;;;;;4996746;28;19941;-88
2022/01/04 06:17:29;;;;;;;;;;;14.50;59.30;;;;;;4995128;28;20424;-88
2022/01/04 06:19:55;;;;;;;;;;;14.50;59.50;;;;;;4996900;28;19914;-88
2022/01/04 06:22:21;;;;;;;;;;;14.50;59.60;;;;;;4996052;28;20277;-88
2022/01/04 06:24:47;;;;;;;;;;;14.60;59.50;;;;;;4995712;28;20678;-88
2022/01/04 06:27:12;;;;;;;;;;;14.60;59.30;;;;;;4995264;28;20013;-88
2022/01/04 06:29:39;;;;;;;;;;;14.60;59.30;;;;;;4995644;28;19914;-88
2022/01/04 06:32:05;;;;;;;;;;;14.60;59.10;;;;;;4979474;28;19914;-87
2022/01/04 06:34:30;;;;;;;;;;;14.60;59.00;;;;;;4994734;28;20619;-88
2022/01/04 06:36:57;;;;;;;;;;;14.60;59.10;;;;;;4996583;28;19960;-88
2022/01/04 06:39:23;;;;;;;;;;;14.60;59.20;;;;;;4995533;28;19922;-88
2022/01/04 06:41:48;;;;;;;;;;;14.60;59.30;;;;;;4996426;28;20263;-87
2022/01/04 06:44:13;;;;;;;;;;;14.60;59.00;;;;;;4995184;28;19929;-88
2022/01/04 06:46:45;;;;;;;;;;;14.50;58.80;;;;;;4996191;28;19984;-87
2022/01/04 06:49:10;;;;;;;;;;;14.50;58.70;;;;;;4996014;28;19924;-88
2022/01/04 06:51:36;;;;;;;;;;;14.50;58.70;;;;;;4996497;28;19996;-88
2022/01/04 06:54:01;;;;;;;;;;;14.50;58.90;;;;;;4996571;28;19921;-88
2022/01/04 06:56:26;;;;;;;;;;;14.50;58.90;;;;;;4994374;28;19914;-88
2022/01/04 06:58:52;;;;;;;;;;;14.50;59.00;;;;;;4996063;28;19933;-87
2022/01/04 07:01:17;;;;;;;;;;;14.50;58.80;;;;;;4994381;28;19914;-87
2022/01/04 07:03:43;;;;;;;;;;;14.50;58.90;;;;;;4995356;28;20047;-88
2022/01/04 07:06:08;;;;;;;;;;;14.60;58.80;;;;;;4994518;28;19921;-88
2022/01/04 07:08:34;;;;;;;;;;;14.60;58.80;;;;;;4978589;28;19964;-88
2022/01/04 07:11:01;;;;;;;;;;;14.60;58.70;;;;;;4995584;28;19921;-88
2022/01/04 07:13:26;;;;;;;;;;;14.60;58.70;;;;;;4995492;28;19921;-88
2022/01/04 07:15:52;;;;;;;;;;;14.50;58.60;;;;;;4993721;28;19913;-87
2022/01/04 07:18:17;;;;;;;;;;;14.50;58.70;;;;;;4994227;28;19918;-88
2022/01/04 07:20:43;;;;;;;;;;;14.50;58.60;;;;;;4995322;28;19918;-88
2022/01/04 07:23:08;;;;;;;;;;;14.50;58.50;;;;;;4994567;28;19918;-88
2022/01/04 07:25:34;;;;;;;;;;;14.50;58.50;;;;;;4995186;28;19921;-88
2022/01/04 07:27:59;;;;;;;;;;;14.50;58.50;;;;;;4994955;28;19948;-88
2022/01/04 07:30:25;;;;;;;;;;;14.50;58.50;;;;;;4995479;28;20238;-88
2022/01/04 07:32:50;;;;;;;;;;;14.50;58.70;;;;;;4977877;28;19917;-88
2022/01/04 07:35:15;;;;;;;;;;;14.60;58.90;;;;;;4995454;28;20269;-88
2022/01/04 07:37:41;;;;;;;;;;;14.50;58.80;;;;;;4978064;28;19964;-88
2022/01/04 07:40:07;;;;;;;;;;;14.60;59.00;;;;;;4994160;28;19910;-86
2022/01/04 07:42:33;;;;;;;;;;;14.60;58.80;;;;;;4993183;28;20394;-87
2022/01/04 07:44:58;;;;;;;;;;;14.60;58.70;;;;;;4994562;28;19961;-87
2022/01/04 07:47:24;;;;;;;;;;;14.60;58.60;;;;;;4993469;28;20278;-88
2022/01/04 07:49:49;;;;;;;;;;;14.70;58.70;;;;;;4993047;28;19914;-87
2022/01/04 07:52:16;;;;;;;;;;;14.70;59.00;;;;;;4993223;28;19952;-87
2022/01/04 07:54:43;;;;;;;;;;;14.70;58.70;;;;;;4993148;28;19910;-87
2022/01/04 07:57:08;;;;;;;;;;;14.70;58.80;;;;;;4994501;28;19929;-88
2022/01/04 07:59:34;;;;;;;;;;;14.70;58.90;;;;;;4977041;28;20541;-88
2022/01/04 08:02:00;;;;;;;;;;;14.70;58.70;;;;;;4994712;28;19926;-88
2022/01/04 08:04:26;;;;;;;;;;;14.70;58.60;;;;;;4993247;28;19913;-88
2022/01/04 08:06:51;;;;;;;;;;;14.70;58.70;;;;;;4993949;28;19918;-88
2022/01/04 08:09:16;;;;;;;;;;;14.70;58.90;;;;;;4993162;28;19914;-88
2022/01/04 08:11:42;;;;;;;;;;;14.70;58.80;;;;;;4976651;28;20013;-88
2022/01/04 08:14:08;;;;;;;;;;;14.70;58.80;;;;;;4993087;28;19913;-87
2022/01/04 08:16:34;;;;;;;;;;;14.70;58.90;;;;;;4976030;28;19924;-87
2022/01/04 08:19:00;;;;;;;;;;;14.70;58.90;;;;;;4990197;28;19918;-87
2022/01/04 08:21:26;;;;;;;;;;;14.70;58.80;;;;;;4991943;28;19977;-87
2022/01/04 08:23:52;;;;;;;;;;;14.70;58.60;;;;;;4990680;28;19914;-88
2022/01/04 08:26:18;;;;;;;;;;;14.70;58.80;;;;;;4973534;28;19925;-87
2022/01/04 08:28:44;;;;;;;;;;;14.70;58.60;;;;;;4991174;28;20016;-87
2022/01/04 08:31:11;;;;;;;;;;;14.70;58.70;;;;;;4989591;28;20041;-88
2022/01/04 08:33:37;;;;;;;;;;;14.70;58.70;;;;;;4990984;28;19936;-87
2022/01/04 08:36:03;;;;;;;;;;;14.70;58.60;;;;;;4990163;28;20005;-87
2022/01/04 08:38:28;;;;;;;;;;;14.70;58.60;;;;;;4991054;28;19921;-87
2022/01/04 08:40:54;;;;;;;;;;;14.70;58.70;;;;;;4991439;28;19995;-87
2022/01/04 08:43:19;;;;;;;;;;;14.70;58.50;;;;;;4989087;28;19922;-87
2022/01/04 08:45:45;;;;;;;;;;;14.70;58.60;;;;;;4973168;28;20325;-87
2022/01/04 08:48:10;;;;;;;;;;;14.70;58.60;;;;;;4991150;28;20453;-87
2022/01/04 08:50:36;;;;;;;;;;;14.70;58.50;;;;;;4992839;28;19921;-86
2022/01/04 08:53:02;;;;;;;;;;;14.80;58.50;;;;;;4991873;28;20456;-87
2022/01/04 08:55:27;;;;;;;;;;;14.80;58.50;;;;;;4992279;28;20324;-88
2022/01/04 08:57:53;;;;;;;;;;;14.80;58.50;;;;;;4991472;28;20373;-87
2022/01/04 09:00:19;;;;;;;;;;;14.80;58.40;;;;;;4989831;28;19937;-87
2022/01/04 09:02:44;;;;;;;;;;;14.80;58.10;;;;;;4990208;28;19921;-87
2022/01/04 09:05:10;;;;;;;;;;;14.80;58.20;;;;;;4989649;28;19928;-87
2022/01/04 09:07:36;;;;;;;;;;;14.80;58.10;;;;;;4991172;28;20259;-89
2022/01/04 09:10:02;;;;;;;;;;;14.80;58.30;;;;;;4991438;28;19937;-87
2022/01/04 09:20:39;;;;;;;;;;;14.90;58.30;;;;;;4992267;28;19924;-87
2022/01/04 09:23:04;;;;;;;;;;;14.90;58.30;;;;;;4991334;28;19914;-88
2022/01/04 09:25:34;;;;;;;;;;;14.90;57.90;;;;;;4975304;28;20367;-88
2022/01/04 09:28:00;;;;;;;;;;;14.90;58.00;;;;;;4990848;28;19922;-88
2022/01/04 09:30:25;;;;;;;;;;;14.90;57.70;;;;;;4990387;28;19941;-87
2022/01/04 09:32:52;;;;;;;;;;;15.00;57.80;;;;;;4990551;28;19957;-87
2022/01/04 09:35:18;;;;;;;;;;;15.00;57.90;;;;;;4991804;28;19925;-88
2022/01/04 09:37:43;;;;;;;;;;;15.00;57.70;;;;;;4990295;28;19914;-88
2022/01/04 09:40:09;;;;;;;;;;;15.00;57.60;;;;;;4991023;28;19964;-88
2022/01/04 09:42:35;;;;;;;;;;;15.10;57.30;;;;;;4991939;28;19917;-88
2022/01/04 09:45:01;;;;;;;;;;;15.00;57.60;;;;;;4992509;28;20452;-88
2022/01/04 09:47:29;;;;;;;;;;;15.10;57.60;;;;;;4995011;28;20036;-88
2022/01/04 09:49:54;;;;;;;;;;;15.10;57.10;;;;;;4996540;28;19975;-88
2022/01/04 09:52:21;;;;;;;;;;;15.10;57.20;;;;;;4994974;28;19921;-88
2022/01/04 09:54:49;;;;;;;;;;;15.10;57.30;;;;;;4994607;28;20004;-88
2022/01/04 09:57:15;;;;;;;;;;;15.20;56.90;;;;;;4995116;28;20282;-88
2022/01/04 09:59:41;;;;;;;;;;;15.20;56.80;;;;;;4995013;28;19925;-88
2022/01/04 10:02:14;;;;;;;;;;;15.20;57.10;;;;;;4994879;28;20293;-88
2022/01/04 10:04:39;;;;;;;;;;;15.30;57.00;;;;;;4996416;28;19921;-87
2022/01/04 10:07:07;;;;;;;;;;;15.30;56.70;;;;;;4994837;28;19925;-87
2022/01/04 10:09:44;;;;;;;;;;;15.20;56.50;;;;;;4993936;28;19918;-88
2022/01/04 10:12:11;;;;;;;;;;;15.30;56.60;;;;;;4993854;28;19930;-87
2022/01/04 10:14:40;;;;;;;;;;;15.30;56.90;;;;;;4994094;28;19918;-88
2022/01/04 10:17:07;;;;;;;;;;;15.30;57.00;;;;;;4994952;28;19968;-88
2022/01/04 10:19:36;;;;;;;;;;;15.40;56.80;;;;;;4993507;28;19924;-88
2022/01/04 10:22:12;;;;;;;;;;;15.40;56.70;;;;;;4994053;28;20012;-88
2022/01/04 10:24:39;;;;;;;;;;;15.40;56.10;;;;;;4997518;28;20005;-88
2022/01/04 10:27:21;;;;;;;;;;;15.30;56.10;;;;;;4995000;28;19918;-88
2022/01/04 10:29:48;;;;;;;;;;;15.40;56.50;;;;;;4998777;28;19918;-89
2022/01/04 10:32:14;;;;;;;;;;;15.40;56.30;;;;;;4994573;28;19925;-88
2022/01/04 10:34:46;;;;;;;;;;;15.40;56.50;;;;;;4993358;28;20362;-88
2022/01/04 10:37:31;;;;;;;;;;;15.40;56.00;;;;;;4976968;28;19918;-89
2022/01/04 10:40:07;;;;;;;;;;;15.50;56.40;;;;;;4996086;28;19914;-88
2022/01/04 10:42:32;;;;;;;;;;;15.50;56.50;;;;;;4976722;28;20403;-89
2022/01/04 10:44:57;;;;;;;;;;;15.50;56.00;;;;;;4993623;28;19926;-89
2022/01/04 10:47:30;;;;;;;;;;;15.50;56.20;;;;;;4993439;28;19914;-89
2022/01/04 10:49:56;;;;;;;;;;;15.50;56.20;;;;;;4993789;28;19922;-88
2022/01/04 10:52:30;;;;;;;;;;;15.50;56.40;;;;;;4996042;28;20332;-88
2022/01/04 10:55:14;;;;;;;;;;;15.50;56.20;;;;;;4998395;28;19929;-89
2022/01/04 10:57:41;;;;;;;;;;;15.50;56.40;;;;;;4997393;28;19914;-89
2022/01/04 11:00:16;;;;;;;;;;;15.50;56.30;;;;;;4998847;28;20012;-88
2022/01/04 11:02:42;;;;;;;;;;;15.50;55.80;;;;;;5001693;28;20000;-89
2022/01/04 11:05:16;;;;;;;;;;;15.40;56.10;;;;;;4997970;28;19961;-88
2022/01/04 11:08:01;;;;;;;;;;;15.40;55.90;;;;;;4999536;28;19914;-88
2022/01/04 11:10:28;;;;;;;;;;;15.50;56.10;;;;;;4982143;28;19975;-89
2022/01/04 11:12:55;;;;;;;;;;;15.50;55.80;;;;;;4999221;28;19929;-88
2022/01/04 11:15:21;;;;;;;;;;;15.50;55.70;;;;;;4983337;28;19918;-88
2022/01/04 11:17:46;;;;;;;;;;;15.50;56.10;;;;;;4998883;28;19925;-89
2022/01/04 11:20:12;;;;;;;;;;;15.50;55.80;;;;;;4981934;28;19914;-89
2022/01/04 11:22:40;;;;;;;;;;;15.50;55.60;;;;;;4998583;28;19976;-89
2022/01/04 11:25:06;;;;;;;;;;;15.60;55.60;;;;;;4998100;28;20002;-88
2022/01/04 11:27:34;;;;;;;;;;;15.60;55.70;;;;;;4998729;28;19937;-87
2022/01/04 11:30:00;;;;;;;;;;;15.70;55.50;;;;;;4997524;28;19964;-88
2022/01/04 11:32:27;;;;;;;;;;;15.70;55.10;;;;;;4998614;28;20243;-88
2022/01/04 11:35:19;;;;;;;;;;;15.70;55.10;;;;;;4997683;28;20008;-88
2022/01/04 11:37:58;;;;;;;;;;;15.80;55.30;;;;;;4997966;28;19914;-88
2022/01/04 11:40:25;;;;;;;;;;;15.70;55.30;;;;;;4995926;28;19918;-87
2022/01/04 11:42:51;;;;;;;;;;;15.80;54.90;;;;;;4998098;28;19918;-88
2022/01/04 11:45:36;;;;;;;;;;;15.80;54.60;;;;;;4996918;28;19917;-87
2022/01/04 11:48:02;;;;;;;;;;;15.70;54.80;;;;;;4997453;28;19929;-88
2022/01/04 11:50:34;;;;;;;;;;;15.70;54.70;;;;;;4995921;28;19943;-88
2022/01/04 11:53:05;;;;;;;;;;;15.70;55.10;;;;;;4996586;28;19937;-86
2022/01/04 11:55:36;;;;;;;;;;;15.70;54.90;;;;;;4997163;28;19925;-89
2022/01/04 11:58:13;;;;;;;;;;;15.80;55.20;;;;;;4996285;28;19925;-87
2022/01/04 12:00:45;;;;;;;;;;;15.70;55.00;;;;;;4996467;28;19957;-88
2022/01/04 12:03:15;;;;;;;;;;;15.70;54.70;;;;;;4997734;28;19922;-88
2022/01/04 12:05:56;;;;;;;;;;;15.70;54.80;;;;;;4995916;28;19983;-88
2022/01/04 12:08:24;;;;;;;;;;;15.60;54.60;;;;;;4996850;28;19914;-88
2022/01/04 12:10:55;;;;;;;;;;;15.60;54.60;;;;;;4993357;28;19918;-88
2022/01/04 12:13:21;;;;;;;;;;;15.60;54.60;;;;;;4993323;28;20005;-88
2022/01/04 12:15:48;;;;;;;;;;;15.50;54.70;;;;;;4995395;28;19914;-88
2022/01/04 12:18:23;;;;;;;;;;;15.50;54.60;;;;;;4978186;28;20016;-88
2022/01/04 12:20:59;;;;;;;;;;;15.50;54.70;;;;;;4994276;28;19910;-88
2022/01/04 12:23:35;;;;;;;;;;;15.50;54.70;;;;;;4992754;28;19928;-88
2022/01/04 12:28:32;;;;;;;;;;;15.30;55.40;;;;;;4993718;28;19921;-88
2022/01/04 12:31:13;;;;;;;;;;;15.20;55.70;;;;;;4992391;28;19918;-88
2022/01/04 12:33:39;;;;;;;;;;;15.20;56.00;;;;;;4991749;28;19918;-88
2022/01/04 12:36:04;;;;;;;;;;;15.20;56.10;;;;;;4975892;28;19920;-88
2022/01/04 12:38:32;;;;;;;;;;;15.20;56.10;;;;;;4994858;28;19921;-87
2022/01/04 12:40:58;;;;;;;;;;;15.20;56.30;;;;;;4976029;28;19921;-88
2022/01/04 12:43:23;;;;;;;;;;;15.20;56.30;;;;;;4976166;28;20361;-88
2022/01/04 12:45:56;;;;;;;;;;;15.20;56.40;;;;;;4993389;28;19929;-88
2022/01/04 12:48:40;;;;;;;;;;;15.20;56.50;;;;;;4992909;28;19968;-87
2022/01/04 12:51:24;;;;;;;;;;;15.20;56.60;;;;;;5008418;28;20008;-88
2022/01/04 12:53:50;;;;;;;;;;;15.20;56.40;;;;;;4991870;28;19917;-88
2022/01/04 12:56:15;;;;;;;;;;;15.20;56.50;;;;;;4992139;28;20258;-88
2022/01/04 12:58:41;;;;;;;;;;;15.20;56.60;;;;;;4975078;28;19910;-88
2022/01/04 13:01:09;;;;;;;;;;;15.10;57.20;;;;;;4992962;28;20316;-88
2022/01/04 13:03:34;;;;;;;;;;;15.00;58.00;;;;;;4993093;28;19910;-88
2022/01/04 13:06:01;;;;;;;;;;;14.90;58.90;;;;;;4991643;28;20448;-87
2022/01/04 13:08:27;;;;;;;;;;;14.80;59.80;;;;;;4992138;28;20012;-88
2022/01/04 13:11:05;;;;;;;;;;;14.80;60.20;;;;;;4975619;28;19925;-88
2022/01/04 13:13:30;;;;;;;;;;;14.70;60.50;;;;;;4991327;28;19944;-87
2022/01/04 13:16:16;;;;;;;;;;;14.70;60.90;;;;;;4993528;28;19929;-87
2022/01/04 13:18:42;;;;;;;;;;;14.70;61.10;;;;;;4992426;28;19922;-88
2022/01/04 13:21:07;;;;;;;;;;;14.70;61.40;;;;;;4976675;28;20321;-88
2022/01/04 13:23:36;;;;;;;;;;;14.70;61.50;;;;;;4997477;28;19914;-88
2022/01/04 13:26:02;;;;;;;;;;;14.70;61.80;;;;;;4980228;28;19925;-87
2022/01/04 13:28:27;;;;;;;;;;;14.70;61.80;;;;;;4996118;28;19913;-88
2022/01/04 13:30:53;;;;;;;;;;;14.80;61.80;;;;;;4995818;28;19924;-87
2022/01/04 13:33:23;;;;;;;;;;;14.80;61.80;;;;;;4997283;28;19925;-89
2022/01/04 13:35:49;;;;;;;;;;;14.80;61.70;;;;;;4995056;28;19922;-87
2022/01/04 13:38:21;;;;;;;;;;;14.80;61.80;;;;;;4995360;28;19917;-87
2022/01/04 13:40:48;;;;;;;;;;;14.80;62.00;;;;;;4996383;28;19918;-86
2022/01/04 13:43:17;;;;;;;;;;;14.80;62.00;;;;;;4995500;28;19922;-87
2022/01/04 13:45:45;;;;;;;;;;;14.80;61.90;;;;;;4995117;28;19996;-87
2022/01/04 13:48:13;;;;;;;;;;;14.80;62.00;;;;;;4979372;28;19913;-87
2022/01/04 13:50:43;;;;;;;;;;;14.80;62.10;;;;;;4979760;28;19993;-87
2022/01/04 13:53:14;;;;;;;;;;;14.90;62.20;;;;;;4992794;28;19924;-87
2022/01/04 13:55:42;;;;;;;;;;;15.00;62.40;;;;;;4995848;28;19917;-88
2022/01/04 13:58:27;;;;;;;;;;;15.00;62.30;;;;;;5001572;28;19949;-88
2022/01/04 14:00:53;;;;;;;;;;;15.10;61.90;;;;;;4997961;28;19918;-87
2022/01/04 14:03:29;;;;;;;;;;;15.00;62.30;;;;;;5004518;28;19981;-88
2022/01/04 14:05:55;;;;;;;;;;;15.10;62.20;;;;;;5000742;28;19988;-88
2022/01/04 14:08:21;;;;;;;;;;;15.10;62.30;;;;;;4999726;28;20373;-90
2022/01/04 14:10:47;;;;;;;;;;;15.20;61.90;;;;;;4980962;28;19922;-87
2022/01/04 14:13:28;;;;;;;;;;;15.10;62.00;;;;;;5002928;28;19910;-88
2022/01/04 14:16:06;;;;;;;;;;;15.10;61.60;;;;;;5001594;28;19918;-88
2022/01/04 14:18:32;;;;;;;;;;;15.10;61.80;;;;;;4997324;28;19910;-88
2022/01/04 14:20:57;;;;;;;;;;;15.10;61.60;;;;;;4997097;28;19921;-91
2022/01/04 14:23:33;;;;;;;;;;;15.10;61.90;;;;;;4999515;28;19925;-86
2022/01/04 14:26:03;;;;;;;;;;;15.10;61.70;;;;;;5002654;28;20251;-87
2022/01/04 14:28:32;;;;;;;;;;;15.00;61.60;;;;;;5003881;28;19922;-87
2022/01/04 14:31:01;;;;;;;;;;;15.00;61.80;;;;;;4981723;28;20321;-89
2022/01/04 14:33:26;;;;;;;;;;;14.90;61.60;;;;;;4998186;28;19937;-88